Aérodrome :
LOGIN :

S'inscrire | Disclaimer

   EN    FR    IT 

 










Légende :    VFR   VFR Marginal   IFR   IFR Intensif   IFR Très Intensif
Visi : 
Plafond : 
>= 8 km
>= 3000ft
5 à 8 km
1000 à 3000 ft
1500m à 5 km
500 à 1000 ft
800 à 1500m
200 à 500 ft
< 800m
< 200 ft
Symboles :   Orages  Brouillard  Fortes neiges  Fortes précipitations  Vent > 20 kt
SIGMETs :   Divers  Orages  Givrage  Turbulence  Onde Orograph.  Cendres Volcan.







- Altitude de l'aérodrome : 194 ft
- Code IATA : IEG


EPZG - Zielona Gora Babimost

DERNIER METAR :
  • 160230Z 01004KT CAVOK 14/12 Q1015

METARs EXPIRÉS :
  • 160200Z 35003KT 300V030 CAVOK 15/13 Q1015
  • 160130Z 34004KT 320V020 CAVOK 16/13 Q1015
  • 160100Z 35005KT 320V020 CAVOK 17/13 Q1015
  • 160030Z 33005KT 300V360 CAVOK 17/13 Q1015
  • 160000Z 35005KT 310V010 CAVOK 17/14 Q1015

TAF TAF EPZG
Valide du 16 à 03h jusqu'au 16 à 12h UTC


160230Z 1603/1612 35004KT CAVOK
Pas de NOTAMs connus pour ce terrain.
1 SIGMET publié pour la FIR Warszawa (EPWW) :
 
Orages noyés dans la masse
EPWW SIGMET 1 VALID 160145/160400 EPWA
EPWW WARSAW FIR EMBD TS OBS SE OF LINE N5420 E02240 - N5030 E02200 - N4950 E02300 TOP FL370 MOV W INTSF=



MET'MAP, la Météo Aéronautique d'un coup d'oeil ! - Copyright ORBIFLY Décembre 2007 - Disclaimer

ORBIFLY MET'MAP TEAM :

Programmation & Développement : Alexandra Zaïnal
Conception & Développement : Baudouin d'Aumeries
Co-Programmation & Développement : Marc-Olivier Méhu
Soutien technique & logistique : Manuel Goepfert

Contact : metmap@orbifly.com




SOURCES & CREDITS :

   NOAA